createdAt,value
2022-11-05T10:59:32.972Z,100514.13
2022-11-05T11:00:20.811Z,100522.66
2022-11-05T11:01:09.094Z,100521.84
2022-11-05T11:01:41.485Z,100522.91
2022-11-05T11:02:21.011Z,100526.97
2022-11-05T11:02:57.920Z,100520.78
2022-11-05T11:03:37.754Z,100523.47
2022-11-05T11:04:23.309Z,100526.38
2022-11-05T11:04:58.080Z,100516.97
2022-11-05T11:05:35.872Z,100528.28
2022-11-05T11:06:18.457Z,100529.88
2022-11-05T11:06:54.831Z,100533.38
2022-11-05T11:07:27.368Z,100530.47
2022-11-05T11:08:07.273Z,100532.94
2022-11-05T11:08:39.613Z,100536.41
2022-11-05T11:09:20.980Z,100536.16
2022-11-05T11:09:55.784Z,100527.06
2022-11-05T11:10:29.135Z,100529.53
2022-11-05T11:11:06.824Z,100532.53
2022-11-05T11:11:44.191Z,100526.91
2022-11-05T11:12:21.360Z,100533.66
2022-11-05T11:12:55.363Z,100533.44
2022-11-05T11:13:33.496Z,100535.88
2022-11-05T11:14:18.478Z,100528.63
2022-11-05T11:15:03.633Z,100521.63
2022-11-05T11:15:37.294Z,100529.69
2022-11-05T11:16:16.884Z,100526.53
2022-11-05T11:16:57.357Z,100530.81
2022-11-05T11:17:32.468Z,100526.84
2022-11-05T11:18:32.473Z,100532.53
2022-11-05T11:19:24.899Z,100523.13
2022-11-05T11:20:23.637Z,100522.84
2022-11-05T11:21:07.468Z,100521.22
2022-11-05T11:21:42.199Z,100533.59
2022-11-05T11:22:22.195Z,100530.69
2022-11-05T11:23:12.769Z,100525.81
2022-11-05T11:23:54.623Z,100525.81
2022-11-05T11:24:33.465Z,100534.91
2022-11-05T11:25:23.542Z,100521.94
2022-11-05T11:26:03.872Z,100524.06
2022-11-05T11:26:37.819Z,100526.75
2022-11-05T11:27:12.744Z,100526.75
2022-11-05T11:27:47.452Z,100531.91
2022-11-05T11:28:24.516Z,100526.53
2022-11-05T11:29:02.146Z,100526.53
2022-11-05T11:29:40.523Z,100533.75
2022-11-05T11:30:23.233Z,100527.56
2022-11-05T11:31:00.356Z,100529.34
2022-11-05T11:31:36.808Z,100529.94
2022-11-05T11:32:14.211Z,100528.63
2022-11-05T11:32:47.992Z,100526.53
2022-11-05T11:33:28.645Z,100528.72
2022-11-05T11:34:04.492Z,100523.34
2022-11-05T11:34:38.990Z,100526.03
2022-11-05T11:35:24.149Z,100532.44
2022-11-05T11:35:56.571Z,100534.59
2022-11-05T11:36:35.192Z,100528.63
2022-11-05T11:37:16.695Z,100527.00
2022-11-05T11:37:54.994Z,100525.94
2022-11-05T11:38:33.020Z,100528.13
2022-11-05T11:39:07.255Z,100530.59
2022-11-05T11:39:39.888Z,100520.06
2022-11-05T11:40:20.523Z,100521.72
2022-11-05T11:41:00.633Z,100520.97
2022-11-05T11:41:37.706Z,100528.81
2022-11-05T11:42:20.720Z,100527.25
2022-11-05T11:42:58.305Z,100532.94
2022-11-05T11:43:33.772Z,100522.44
2022-11-05T11:44:14.124Z,100530.13
2022-11-05T11:44:47.589Z,100535.16
2022-11-05T11:45:32.737Z,100541.91
2022-11-05T11:46:15.134Z,100537.38
2022-11-05T11:46:52.933Z,100529.53
2022-11-05T11:47:28.352Z,100536.31
2022-11-05T11:48:04.627Z,100535.50
2022-11-05T11:48:39.453Z,100545.16
2022-11-05T11:49:33.069Z,100546.47
2022-11-05T11:50:08.228Z,100540.28
2022-11-05T11:50:42.574Z,100537.59
2022-11-05T11:51:30.844Z,100544.50
2022-11-05T11:52:12.822Z,100553.28
2022-11-05T11:52:44.992Z,100546.28
2022-11-05T11:53:25.053Z,100544.19
2022-11-05T11:54:00.992Z,100547.94
2022-11-05T11:54:34.352Z,100542.06
2022-11-05T11:55:20.744Z,100536.94
2022-11-05T11:56:02.507Z,100541.25
2022-11-05T11:56:43.782Z,100538.00
2022-11-05T11:57:29.458Z,100535.00
2022-11-05T11:58:07.156Z,100536.88
2022-11-05T11:58:42.797Z,100536.59
2022-11-05T11:59:46.896Z,100533.69
2022-11-05T12:00:24.211Z,100538.50
2022-11-05T12:01:07.215Z,100531.22
2022-11-05T12:02:06.701Z,100527.16
2022-11-05T12:03:02.156Z,100525.81
2022-11-05T12:03:41.725Z,100534.09
2022-11-05T12:04:28.215Z,100539.94
2022-11-05T12:05:26.335Z,100535.38
2022-11-05T12:06:07.176Z,100537.00
2022-11-05T12:06:45.459Z,100533.59
2022-11-05T12:07:34.243Z,100538.50
2022-11-05T12:08:31.164Z,100527.41
2022-11-05T12:09:14.858Z,100525.81
2022-11-05T12:10:00.948Z,100530.09
2022-11-05T12:10:48.875Z,100530.69
2022-11-05T12:11:25.433Z,100531.22
2022-11-05T12:12:07.719Z,100527.25
2022-11-05T12:12:54.253Z,100537.50
2022-11-05T12:13:51.733Z,100534.28
2022-11-05T12:14:33.104Z,100531.59
2022-11-05T12:15:27.923Z,100529.44
2022-11-05T12:16:11.736Z,100522.78
2022-11-05T12:17:08.666Z,100523.94
2022-11-05T12:17:50.718Z,100511.31
2022-11-05T12:18:36.756Z,100522.38
2022-11-05T12:19:21.587Z,100517.56
2022-11-05T12:20:14.282Z,100515.22
2022-11-05T12:21:01.515Z,100518.78
2022-11-05T12:21:53.437Z,100520.09
2022-11-05T12:22:37.476Z,100522.22
2022-11-05T12:23:27.327Z,100524.88
2022-11-05T12:24:20.922Z,100517.84
2022-11-05T12:25:08.535Z,100518.78
2022-11-05T12:25:45.705Z,100524.91
2022-11-05T12:26:29.482Z,100528.63
2022-11-05T12:27:15.691Z,100521.41
2022-11-05T12:28:05.916Z,100519.53
2022-11-05T12:29:17.404Z,100513.84
2022-11-05T12:30:00.328Z,100508.97
2022-11-05T12:30:48.994Z,100512.78
2022-11-05T12:31:33.826Z,100518.47
2022-11-05T12:32:33.933Z,100517.16
2022-11-05T12:33:26.231Z,100519.63
2022-11-05T12:34:11.655Z,100519.38
2022-11-05T12:34:56.127Z,100519.13
2022-11-05T12:35:47.360Z,100522.13
2022-11-05T12:36:42.972Z,100521.66
2022-11-05T12:37:24.963Z,100526.53
2022-11-05T12:38:10.125Z,100522.56
2022-11-05T12:39:09.421Z,100527.09
2022-11-05T12:39:58.547Z,100528.72
2022-11-05T12:40:51.668Z,100531.97
2022-11-05T12:41:30.830Z,100537.13
2022-11-05T12:42:08.593Z,100531.47
2022-11-05T12:42:59.509Z,100531.25
2022-11-05T12:43:42.521Z,100532.31
2022-11-05T12:44:34.591Z,100528.78
2022-11-05T12:45:21.376Z,100524.50
2022-11-05T12:46:05.616Z,100532.81
2022-11-05T12:46:46.279Z,100539.00
2022-11-05T12:47:35.384Z,100540.34
2022-11-05T12:48:28.303Z,100528.78
2022-11-05T12:49:38.226Z,100534.34
2022-11-05T12:50:20.878Z,100530.03
2022-11-05T12:51:02.380Z,100531.41
2022-11-05T12:51:48.531Z,100534.66
2022-11-05T12:53:00.197Z,100531.91
2022-11-05T12:53:48.802Z,100535.09
2022-11-05T12:54:34.311Z,100540.13
2022-11-05T12:55:12.756Z,100540.91
2022-11-05T12:55:49.718Z,100542.31
2022-11-05T12:56:30.923Z,100544.78
2022-11-05T12:57:06.952Z,100546.38
2022-11-05T12:57:43.398Z,100548.00
2022-11-05T12:58:24.445Z,100547.78
2022-11-05T12:59:01.206Z,100553.16
2022-11-05T12:59:39.773Z,100550.16
2022-11-05T13:00:18.788Z,100547.38
2022-11-05T13:01:03.294Z,100550.88
2022-11-05T13:01:43.809Z,100553.22
2022-11-05T13:02:26.494Z,100561.84
2022-11-05T13:03:19.315Z,100563.94
2022-11-05T13:03:57.750Z,100561.53
2022-11-05T13:04:39.132Z,100559.91
2022-11-05T13:05:16.984Z,100564.22
2022-11-05T13:06:01.461Z,100559.41
2022-11-05T13:06:40.425Z,100562.59
2022-11-05T13:07:20.941Z,100562.81
2022-11-05T13:07:59.056Z,100566.59
2022-11-05T13:08:40.448Z,100569.81
2022-11-05T13:09:17.911Z,100569.59
2022-11-05T13:09:57.976Z,100566.91
2022-11-05T13:10:34.625Z,100573.31
2022-11-05T13:11:19.353Z,100567.94
2022-11-05T13:11:55.064Z,100565.50
2022-11-05T13:12:34.176Z,100574.38
2022-11-05T13:13:13.808Z,100567.38
2022-11-05T13:13:56.109Z,100568.44
2022-11-05T13:14:33.019Z,100562.25
2022-11-05T13:15:27.351Z,100565.50
2022-11-05T13:16:05.185Z,100563.31
2022-11-05T13:16:48.677Z,100567.63
2022-11-05T13:17:25.077Z,100573.31
2022-11-05T13:18:00.247Z,100580.06
2022-11-05T13:18:43.062Z,100582.53
2022-11-05T13:19:21.766Z,100581.69
2022-11-05T13:20:02.436Z,100566.41
2022-11-05T13:20:38.732Z,100587.97
2022-11-05T13:21:14.332Z,100585.22
2022-11-05T13:21:52.369Z,100574.69
2022-11-05T13:22:36.477Z,100575.78
2022-11-05T13:23:16.549Z,100576.81
2022-11-05T13:23:55.281Z,100579.50
2022-11-05T13:24:32.915Z,100584.88
2022-11-05T13:25:16.196Z,100575.78
2022-11-05T13:25:53.543Z,100581.97
2022-11-05T13:26:33.112Z,100575.50
2022-11-05T13:27:21.831Z,100586.84
2022-11-05T13:28:05.240Z,100587.66
2022-11-05T13:28:46.915Z,100588.47
2022-11-05T13:29:26.792Z,100594.41
2022-11-05T13:30:03.177Z,100590.44
2022-11-05T13:30:41.696Z,100592.03
2022-11-05T13:31:17.856Z,100593.13
2022-11-05T13:32:01.689Z,100594.16
2022-11-05T13:32:37.906Z,100580.41
2022-11-05T13:33:17.552Z,100589.53
2022-11-05T13:33:52.842Z,100596.19
2022-11-05T13:34:24.907Z,100592.44
2022-11-05T13:35:01.382Z,100591.16
2022-11-05T13:35:41.777Z,100599.53
2022-11-05T13:36:29.988Z,100593.25
2022-11-05T13:37:19.433Z,100595.94
2022-11-05T13:38:12.673Z,100601.91
2022-11-05T13:39:01.390Z,100602.69
2022-11-05T13:39:39.349Z,100602.13
2022-11-05T13:40:16.089Z,100602.69
2022-11-05T13:41:04.034Z,100608.88
2022-11-05T13:41:53.398Z,100611.34
2022-11-05T13:43:04.412Z,100610.28
2022-11-05T13:43:46.448Z,100606.94
2022-11-05T13:44:46.736Z,100605.63
2022-11-05T13:45:53.905Z,100609.16
2022-11-05T13:46:42.936Z,100605.97
2022-11-05T13:47:39.623Z,100609.47
2022-11-05T13:48:41.576Z,100609.16
2022-11-05T13:49:39.350Z,100607.50
2022-11-05T13:50:52.902Z,100607.50
2022-11-05T13:51:53.240Z,100615.47
2022-11-05T13:52:43.777Z,100605.78
2022-11-05T13:53:31.952Z,100612.97
2022-11-05T13:54:46.801Z,100616.69
2022-11-05T13:55:41.732Z,100616.91
2022-11-05T13:56:28.832Z,100621.25
2022-11-05T13:57:17.493Z,100621.25
2022-11-05T13:58:07.547Z,100623.09
2022-11-05T13:58:55.979Z,100618.56
2022-11-05T13:59:58.099Z,100621.72
2022-11-05T14:00:35.658Z,100624.41
2022-11-05T14:01:22.315Z,100619.59
2022-11-05T14:01:57.179Z,100613.31
2022-11-05T14:02:42.575Z,100618.94
2022-11-05T14:03:19.075Z,100622.91
2022-11-05T14:03:53.860Z,100624.56
2022-11-05T14:04:34.216Z,100625.38
2022-11-05T14:05:07.516Z,100620.94
2022-11-05T14:05:42.796Z,100623.72
2022-11-05T14:06:25.251Z,100630.25
2022-11-05T14:07:10.136Z,100625.38
2022-11-05T14:07:49.755Z,100621.53
2022-11-05T14:08:28.123Z,100627.97
2022-11-05T14:09:06.208Z,100636.59
2022-11-05T14:09:40.514Z,100628.28
2022-11-05T14:10:27.396Z,100638.56
2022-11-05T14:11:03.463Z,100643.13
2022-11-05T14:11:40.688Z,100638.31
2022-11-05T14:12:22.128Z,100642.63
2022-11-05T14:13:00.256Z,100635.94
2022-11-05T14:13:36.977Z,100646.69
2022-11-05T14:14:20.944Z,100647.50
2022-11-05T14:14:59.418Z,100647.50
2022-11-05T14:15:33.085Z,100641.31
2022-11-05T14:16:10.337Z,100643.78
2022-11-05T14:16:49.800Z,100643.78
2022-11-05T14:17:56.509Z,100636.75
2022-11-05T14:18:44.831Z,100648.00
2022-11-05T14:19:53.293Z,100646.03
2022-11-05T14:20:45.141Z,100650.03
2022-11-05T14:21:51.000Z,100643.56
2022-11-05T14:22:37.878Z,100647.06
2022-11-05T14:23:39.133Z,100649.75
2022-11-05T14:24:43.290Z,100647.34
2022-11-05T14:25:56.708Z,100647.13
2022-11-05T14:26:33.229Z,100644.69
2022-11-05T14:27:33.242Z,100651.69
2022-11-05T14:28:42.708Z,100648.19
2022-11-05T14:29:22.880Z,100646.31
2022-11-05T14:29:58.479Z,100651.69
2022-11-05T14:30:45.615Z,100659.50
2022-11-05T14:31:54.447Z,100649.59
2022-11-05T14:32:53.173Z,100659.97
2022-11-05T14:33:39.471Z,100665.16
2022-11-05T14:34:45.132Z,100668.28
2022-11-05T14:35:36.766Z,100665.59
2022-11-05T14:36:31.352Z,100666.19
2022-11-05T14:37:22.251Z,100667.03
2022-11-05T14:37:58.820Z,100674.25
2022-11-05T14:38:30.957Z,100670.97
2022-11-05T14:39:23.724Z,100672.59
2022-11-05T14:39:56.681Z,100665.38
2022-11-05T14:40:39.291Z,100668.41
2022-11-05T14:41:11.417Z,100667.56
2022-11-05T14:42:03.294Z,100668.88
2022-11-05T14:42:35.998Z,100669.94
2022-11-05T14:43:19.781Z,100671.09
2022-11-05T14:44:01.427Z,100672.13
2022-11-05T14:44:35.792Z,100673.44
2022-11-05T14:45:26.141Z,100671.56
2022-11-05T14:46:00.940Z,100668.88
2022-11-05T14:46:44.417Z,100667.03
2022-11-05T14:47:21.728Z,100666.69
2022-11-05T14:47:59.500Z,100667.72
2022-11-05T14:48:40.528Z,100662.81
2022-11-05T14:49:19.075Z,100662.25
2022-11-05T14:49:56.700Z,100671.13
2022-11-05T14:50:36.699Z,100667.41
2022-11-05T14:51:29.400Z,100669.00
2022-11-05T14:52:07.989Z,100671.94
2022-11-05T14:52:52.949Z,100671.13
2022-11-05T14:53:30.675Z,100675.66
2022-11-05T14:54:08.042Z,100676.22
2022-11-05T14:54:44.027Z,100673.56
2022-11-05T14:55:30.835Z,100675.19
2022-11-05T14:56:07.262Z,100681.38
2022-11-05T14:56:50.549Z,100676.59
2022-11-05T14:57:55.566Z,100669.81
2022-11-05T14:58:33.389Z,100677.66
2022-11-05T14:59:52.594Z,100670.88
2022-11-05T15:00:44.024Z,100679.88
2022-11-05T15:01:48.890Z,100680.94
2022-11-05T15:02:24.196Z,100679.06
2022-11-05T15:03:01.460Z,100673.00
2022-11-05T15:04:01.334Z,100671.94
2022-11-05T15:04:40.698Z,100670.88
2022-11-05T15:05:38.332Z,100666.56
2022-11-05T15:06:28.522Z,100676.16
2022-11-05T15:07:29.923Z,100674.50
2022-11-05T15:08:32.043Z,100683.00
2022-11-05T15:09:20.895Z,100680.25
2022-11-05T15:10:09.831Z,100678.63
2022-11-05T15:10:44.169Z,100682.34
2022-11-05T15:11:22.172Z,100667.41
2022-11-05T15:12:21.225Z,100680.34
2022-11-05T15:12:56.939Z,100671.00
2022-11-05T15:13:33.735Z,100674.84
2022-11-05T15:14:15.696Z,100669.47
2022-11-05T15:14:54.968Z,100671.34
2022-11-05T15:15:34.394Z,100671.94
2022-11-05T15:16:07.878Z,100678.13
2022-11-05T15:16:43.670Z,100669.81
2022-11-05T15:17:26.688Z,100676.81
2022-11-05T15:18:03.877Z,100669.38
2022-11-05T15:18:47.086Z,100675.06
2022-11-05T15:19:23.466Z,100669.69
2022-11-05T15:20:01.737Z,100674.25
2022-11-05T15:20:40.482Z,100660.81
2022-11-05T15:21:19.266Z,100652.78
2022-11-05T15:21:53.511Z,100666.19
2022-11-05T15:22:30.604Z,100667.84
2022-11-05T15:23:10.239Z,100659.78
2022-11-05T15:23:44.240Z,100667.72
2022-11-05T15:24:19.464Z,100663.19
2022-11-05T15:24:54.463Z,100665.38
2022-11-05T15:25:32.949Z,100674.59
2022-11-05T15:26:13.468Z,100663.03
2022-11-05T15:26:50.352Z,100666.75
2022-11-05T15:27:38.661Z,100669.38
2022-11-05T15:28:17.656Z,100674.63
2022-11-05T15:28:54.088Z,100675.66
2022-11-05T15:29:30.503Z,100678.34
2022-11-05T15:30:16.534Z,100678.34
2022-11-05T15:31:22.709Z,100681.41
2022-11-05T15:31:55.733Z,100676.50
2022-11-05T15:32:34.605Z,100677.09
2022-11-05T15:33:19.354Z,100676.25
2022-11-05T15:34:18.405Z,100682.34
2022-11-05T15:34:52.031Z,100674.78
2022-11-05T15:35:29.555Z,100680.13
2022-11-05T15:36:20.027Z,100679.31
2022-11-05T15:36:57.865Z,100679.53
2022-11-05T15:37:30.143Z,100680.97
2022-11-05T15:38:04.858Z,100688.75
2022-11-05T15:38:37.336Z,100691.22
2022-11-05T15:39:29.341Z,100690.63
2022-11-05T15:40:04.664Z,100690.88
2022-11-05T15:40:36.794Z,100690.88
2022-11-05T15:41:18.285Z,100701.59
2022-11-05T15:41:50.764Z,100686.53
2022-11-05T15:42:27.816Z,100689.00
2022-11-05T15:43:11.361Z,100698.91
2022-11-05T15:43:48.161Z,100703.69
2022-11-05T15:44:39.129Z,100697.75
2022-11-05T15:45:22.971Z,100703.13
2022-11-05T15:46:02.721Z,100703.13
2022-11-05T15:46:37.515Z,100707.88
2022-11-05T15:47:21.764Z,100706.50
2022-11-05T15:47:56.454Z,100711.75
2022-11-05T15:48:28.541Z,100709.28
2022-11-05T15:49:09.079Z,100711.75
2022-11-05T15:49:43.098Z,100707.44
2022-11-05T15:50:16.194Z,100705.34
2022-11-05T15:50:51.001Z,100709.41
2022-11-05T15:51:26.140Z,100704.66
2022-11-05T15:52:01.031Z,100705.44
2022-11-05T15:52:36.588Z,100709.75
2022-11-05T15:53:47.564Z,100709.75
2022-11-05T15:54:30.079Z,100706.94
2022-11-05T15:55:17.309Z,100696.22
2022-11-05T15:55:57.285Z,100713.63
2022-11-05T15:56:32.141Z,100715.69
2022-11-05T15:57:07.187Z,100715.25
2022-11-05T15:57:47.790Z,100711.75
2022-11-05T15:58:24.137Z,100713.63
2022-11-05T15:59:00.757Z,100718.75
2022-11-05T15:59:35.538Z,100711.50
2022-11-05T16:00:16.360Z,100722.00
2022-11-05T16:00:49.675Z,100715.00
2022-11-05T16:01:28.126Z,100715.00
2022-11-05T16:02:21.388Z,100716.06
2022-11-05T16:02:59.500Z,100717.81
2022-11-05T16:03:34.007Z,100712.19
2022-11-05T16:04:19.009Z,100712.56
2022-11-05T16:04:51.778Z,100727.03
2022-11-05T16:05:28.382Z,100714.19
2022-11-05T19:17:37.138Z,100801.34
2022-11-05T19:18:09.525Z,100797.03
2022-11-05T19:18:45.518Z,100804.03
2022-11-05T19:19:17.609Z,100801.34
2022-11-05T19:19:49.724Z,100794.38
2022-11-05T19:20:24.430Z,100807.53
2022-11-05T19:20:56.643Z,100806.72
2022-11-05T19:21:32.475Z,100803.81
2022-11-05T19:22:07.219Z,100807.31
2022-11-05T19:22:39.345Z,100806.25
2022-11-05T19:23:11.474Z,100805.22
2022-11-05T19:23:46.573Z,100807.69
2022-11-05T19:24:18.911Z,100813.03
2022-11-05T19:24:53.551Z,100802.91
2022-11-05T19:25:25.645Z,100808.25
2022-11-05T19:25:57.934Z,100806.19
2022-11-05T19:26:33.418Z,100811.06
2022-11-05T19:27:05.521Z,100803.28
2022-11-05T19:27:41.161Z,100811.06
2022-11-05T19:28:13.777Z,100810.25
2022-11-05T19:28:48.867Z,100811.06
2022-11-05T19:29:21.097Z,100801.19
2022-11-05T19:29:55.789Z,100801.78
2022-11-05T19:30:27.984Z,100804.47
2022-11-05T19:31:00.409Z,100805.28
2022-11-05T19:31:35.112Z,100794.56
2022-11-05T19:32:09.243Z,100797.25
2022-11-05T19:32:46.504Z,100797.00
2022-11-05T19:33:18.698Z,100797.00
2022-11-05T19:33:52.077Z,100801.53
2022-11-05T19:34:26.861Z,100800.72
2022-11-05T19:34:59.014Z,100792.94
2022-11-05T19:35:38.312Z,100799.31
2022-11-05T19:36:12.987Z,100802.47
2022-11-05T19:36:47.727Z,100795.25
2022-11-05T19:37:20.097Z,100797.94
2022-11-05T19:37:53.614Z,100801.19
2022-11-05T19:38:29.221Z,100792.94
2022-11-05T19:39:03.425Z,100797.25
2022-11-05T19:39:38.787Z,100796.19
2022-11-05T19:40:11.964Z,100799.47
2022-11-05T19:40:44.128Z,100797.59
2022-11-05T19:41:22.405Z,100794.94
2022-11-05T19:41:57.718Z,100792.47
2022-11-05T19:42:36.713Z,100799.69
2022-11-05T19:43:08.767Z,100795.16
2022-11-05T19:43:45.431Z,100797.59
2022-11-05T19:44:17.691Z,100794.94
2022-11-05T19:44:52.421Z,100798.19
2022-11-05T19:45:43.523Z,100790.75
2022-11-05T19:46:21.825Z,100797.59
2022-11-05T19:46:53.918Z,100797.59
2022-11-05T19:47:26.032Z,100795.97
2022-11-05T19:48:03.286Z,100798.44
2022-11-05T19:48:35.531Z,100793.06
2022-11-05T19:49:10.200Z,100795.50
2022-11-05T19:49:42.326Z,100794.47
2022-11-05T19:50:14.421Z,100795.28
2022-11-05T19:50:49.708Z,100793.44
2022-11-05T19:51:23.733Z,100792.59
2022-11-05T19:51:55.896Z,100792.00
2022-11-05T19:52:30.613Z,100797.97
2022-11-05T19:53:02.697Z,100794.69
2022-11-05T19:53:35.094Z,100802.50
2022-11-05T19:54:10.405Z,100803.53
2022-11-05T19:54:42.718Z,100795.75
2022-11-05T19:55:14.824Z,100802.72
2022-11-05T19:55:49.480Z,100796.31
2022-11-05T19:56:23.331Z,100810.53
2022-11-05T19:56:58.714Z,100799.81
2022-11-05T19:57:30.896Z,100797.16
2022-11-05T19:58:02.979Z,100799.34
2022-11-05T19:58:38.055Z,100805.53
2022-11-05T19:59:11.994Z,100795.63
2022-11-05T19:59:46.949Z,100797.50
2022-11-05T20:00:19.468Z,100797.75
2022-11-05T20:00:54.124Z,100799.34
2022-11-05T20:01:28.034Z,100799.97
2022-11-05T20:02:02.955Z,100794.59
2022-11-05T20:02:35.267Z,100796.47
2022-11-05T20:03:11.002Z,100795.41
2022-11-05T20:03:46.042Z,100799.97
2022-11-05T20:04:18.143Z,100798.09
2022-11-05T20:04:50.919Z,100807.53
2022-11-05T20:05:25.633Z,100807.31
2022-11-05T20:06:02.479Z,100799.28
2022-11-05T20:06:40.839Z,100803.81
2022-11-05T20:07:12.947Z,100803.22
2022-11-05T20:07:52.725Z,100796.81
2022-11-05T20:08:25.247Z,100800.53
